createdAt,value
2018-02-10T00:02:03.729Z,45.47
2018-02-10T00:04:32.111Z,46.83
2018-02-10T00:06:59.721Z,47.53
2018-02-10T00:09:27.379Z,49.37
2018-02-10T00:11:55.091Z,45.93
2018-02-10T00:14:22.703Z,46.13
2018-02-10T00:16:51.108Z,46.27
2018-02-10T00:19:18.713Z,47.33
2018-02-10T00:21:46.580Z,46.67
2018-02-10T00:24:14.202Z,46.60
2018-02-10T00:26:41.838Z,46.20
2018-02-10T00:29:10.280Z,46.30
2018-02-10T00:31:37.889Z,45.60
2018-02-10T00:34:06.311Z,43.20
2018-02-10T00:36:33.936Z,46.40
2018-02-10T00:39:02.294Z,45.77
2018-02-10T00:41:29.912Z,45.97
2018-02-10T00:43:57.508Z,45.60
2018-02-10T00:46:25.394Z,48.60
2018-02-10T00:48:53.013Z,46.83
2018-02-10T00:51:20.640Z,45.77
2018-02-10T00:53:48.284Z,46.17
2018-02-10T00:56:15.878Z,46.30
2018-02-10T00:58:44.322Z,48.97
2018-02-10T01:01:11.987Z,46.27
2018-02-10T01:03:39.622Z,47.63
2018-02-10T01:06:07.989Z,48.03
2018-02-10T01:08:36.356Z,49.40
2018-02-10T01:11:04.756Z,46.33
2018-02-10T01:13:33.132Z,48.80
2018-02-10T01:16:01.543Z,46.73
2018-02-10T01:18:29.905Z,47.97
2018-02-10T01:20:57.819Z,48.77
2018-02-10T01:23:25.417Z,45.27
2018-02-10T01:25:53.027Z,45.13
2018-02-10T01:28:21.421Z,47.10
2018-02-10T01:30:49.027Z,45.93
2018-02-10T01:33:16.675Z,46.17
2018-02-10T01:35:44.286Z,48.23
2018-02-10T01:38:13.052Z,46.13
2018-02-10T01:40:40.661Z,47.80
2018-02-10T01:43:09.039Z,49.17
2018-02-10T01:45:37.438Z,49.10
2018-02-10T01:48:05.043Z,48.03
2018-02-10T01:50:32.679Z,46.60
2018-02-10T01:53:00.274Z,44.67
2018-02-10T01:55:27.931Z,48.93
2018-02-10T01:57:55.566Z,45.77
2018-02-10T02:00:23.159Z,45.80
2018-02-10T02:02:50.781Z,45.80
2018-02-10T02:05:19.166Z,45.50
2018-02-10T02:07:47.530Z,50.80
2018-02-10T02:10:16.680Z,49.13
2018-02-10T02:12:44.278Z,46.03
2018-02-10T02:15:11.902Z,46.80
2018-02-10T02:17:39.530Z,48.17
2018-02-10T02:20:07.196Z,47.97
2018-02-10T02:22:34.778Z,47.60
2018-02-10T02:25:03.135Z,50.27
2018-02-10T02:27:30.769Z,44.27
2018-02-10T02:29:58.460Z,46.63
2018-02-10T02:32:26.072Z,47.13
2018-02-10T02:34:53.672Z,43.77
2018-02-10T02:37:21.645Z,46.97
2018-02-10T02:39:49.285Z,43.37
2018-02-10T02:42:16.872Z,47.70
2018-02-10T02:44:44.494Z,47.10
2018-02-10T02:47:12.865Z,48.93
2018-02-10T02:49:40.595Z,45.70
2018-02-10T02:52:08.191Z,48.50
2018-02-10T02:54:36.683Z,47.93
2018-02-10T02:57:04.291Z,44.43
2018-02-10T02:59:31.905Z,47.17
2018-02-10T03:02:01.023Z,41.47
2018-02-10T03:04:29.381Z,48.60
2018-02-10T03:06:57.017Z,45.30
2018-02-10T03:09:24.857Z,48.70
2018-02-10T03:11:53.271Z,44.63
2018-02-10T03:14:21.024Z,46.37
2018-02-10T03:16:48.634Z,45.63
2018-02-10T03:19:16.267Z,43.97
2018-02-10T03:21:43.886Z,45.80
2018-02-10T03:24:11.510Z,47.13
2018-02-10T03:26:39.128Z,45.93
2018-02-10T03:29:07.498Z,48.33
2018-02-10T03:31:35.885Z,48.27
2018-02-10T03:34:03.688Z,51.13
2018-02-10T03:36:31.310Z,47.30
2018-02-10T03:38:58.916Z,49.90
2018-02-10T03:41:26.552Z,52.10
2018-02-10T03:43:54.152Z,47.10
2018-02-10T03:46:21.747Z,49.00
2018-02-10T03:48:49.372Z,46.10
2018-02-10T03:51:16.962Z,46.70
2018-02-10T03:53:44.708Z,43.87
2018-02-10T03:56:12.313Z,44.60
2018-02-10T03:58:39.956Z,44.60
2018-02-10T04:01:07.586Z,44.10
2018-02-10T04:03:35.960Z,46.97
2018-02-10T04:06:04.354Z,46.70
2018-02-10T04:08:32.752Z,47.07
2018-02-10T04:11:01.125Z,46.23
2018-02-10T04:13:29.549Z,49.70
2018-02-10T04:15:57.151Z,43.87
2018-02-10T04:18:25.549Z,47.37
2018-02-10T04:20:53.916Z,46.07
2018-02-10T04:23:22.411Z,47.77
2018-02-10T04:25:50.769Z,43.77
2018-02-10T04:28:18.397Z,44.80
2018-02-10T04:30:46.005Z,45.23
2018-02-10T04:33:13.611Z,44.40
2018-02-10T04:35:41.991Z,44.93
2018-02-10T04:38:10.357Z,47.27
2018-02-10T04:40:38.820Z,43.73
2018-02-10T04:43:06.431Z,47.40
2018-02-10T04:45:34.815Z,48.13
2018-02-10T04:48:03.199Z,48.30
2018-02-10T04:50:31.569Z,46.13
2018-02-10T04:53:00.000Z,44.50
2018-02-10T04:55:27.637Z,44.57
2018-02-10T04:57:55.282Z,43.77
2018-02-10T05:00:22.978Z,43.17
2018-02-10T05:02:50.611Z,44.90
2018-02-10T05:05:18.229Z,41.10
2018-02-10T05:07:45.837Z,41.27
2018-02-10T05:10:13.542Z,39.73
2018-02-10T05:12:41.160Z,38.97
2018-02-10T05:15:08.859Z,38.53
2018-02-10T05:17:37.228Z,38.47
2018-02-10T05:20:04.880Z,36.87
2018-02-10T05:22:32.530Z,38.37
2018-02-10T05:25:00.130Z,35.80
2018-02-10T05:27:28.592Z,37.77
2018-02-10T05:29:56.203Z,41.67
2018-02-10T05:32:23.832Z,42.67
2018-02-10T05:34:52.948Z,40.97
2018-02-10T05:37:21.325Z,40.23
2018-02-10T05:39:48.954Z,38.43
2018-02-10T05:42:16.566Z,42.30
2018-02-10T05:44:44.946Z,40.00
2018-02-10T05:47:13.308Z,41.37
2018-02-10T05:49:40.919Z,41.20
2018-02-10T05:52:08.578Z,39.63
2018-02-10T05:54:36.938Z,41.10
2018-02-10T05:57:04.633Z,42.70
2018-02-10T05:59:33.078Z,37.77
2018-02-10T06:02:00.706Z,40.10
2018-02-10T06:04:28.324Z,41.90
2018-02-10T06:06:55.926Z,42.10
2018-02-10T06:09:23.578Z,41.07
2018-02-10T06:11:51.959Z,40.97
2018-02-10T06:14:20.394Z,38.50
2018-02-10T06:16:48.006Z,38.13
2018-02-10T06:19:16.401Z,40.40
2018-02-10T06:21:44.022Z,38.97
2018-02-10T06:24:11.678Z,40.50
2018-02-10T06:26:39.326Z,38.80
2018-02-10T06:29:06.941Z,37.37
2018-02-10T06:31:35.697Z,39.03
2018-02-10T06:34:03.295Z,35.87
2018-02-10T06:36:30.902Z,34.90
2018-02-10T06:38:58.561Z,29.80
2018-02-10T06:41:26.159Z,34.60
2018-02-10T06:43:53.781Z,31.37
2018-02-10T06:46:22.184Z,32.50
2018-02-10T06:48:49.829Z,32.77
2018-02-10T06:51:17.457Z,31.23
2018-02-10T06:53:45.067Z,31.20
2018-02-10T06:56:12.857Z,33.93
2018-02-10T06:58:40.463Z,34.00
2018-02-10T07:01:08.858Z,34.30
2018-02-10T07:03:36.517Z,35.67
2018-02-10T07:06:05.631Z,38.17
2018-02-10T07:08:34.029Z,37.47
2018-02-10T07:11:02.415Z,33.47
2018-02-10T07:13:30.817Z,34.30
2018-02-10T07:15:58.438Z,35.70
2018-02-10T07:18:26.276Z,33.60
2018-02-10T07:20:53.872Z,30.13
2018-02-10T07:23:21.534Z,31.50
2018-02-10T07:25:49.192Z,45.93
2018-02-10T07:28:16.814Z,50.67
2018-02-10T07:30:44.528Z,33.07
2018-02-10T07:33:12.132Z,30.33
2018-02-10T07:35:40.530Z,31.40
2018-02-10T07:38:08.262Z,31.33
2018-02-10T07:40:36.200Z,28.93
2018-02-10T07:43:03.794Z,40.23
2018-02-10T07:45:31.388Z,34.87
2018-02-10T07:47:59.030Z,33.20
2018-02-10T07:50:26.634Z,35.90
2018-02-10T07:52:54.355Z,38.43
2018-02-10T07:55:21.946Z,35.83
2018-02-10T07:57:50.322Z,33.40
2018-02-10T08:00:18.716Z,34.40
2018-02-10T08:02:47.073Z,34.00
2018-02-10T08:05:14.694Z,34.00
2018-02-10T08:07:42.292Z,31.43
2018-02-10T08:10:09.912Z,31.70
2018-02-10T08:12:37.520Z,33.33
2018-02-10T08:15:05.113Z,29.63
2018-02-10T08:17:33.554Z,29.00
2018-02-10T08:20:01.180Z,30.40
2018-02-10T08:22:28.813Z,29.90
2018-02-10T08:24:57.334Z,28.07
2018-02-10T08:27:25.127Z,30.03
2018-02-10T08:29:52.799Z,31.03
2018-02-10T08:32:20.420Z,29.17
2018-02-10T08:34:48.935Z,27.80
2018-02-10T08:37:16.549Z,30.27
2018-02-10T08:39:44.912Z,27.27
2018-02-10T08:42:12.570Z,25.93
2018-02-10T08:44:40.165Z,27.47
2018-02-10T08:47:07.811Z,27.33
2018-02-10T08:49:35.451Z,24.77
2018-02-10T08:52:03.089Z,25.73
2018-02-10T08:54:31.481Z,26.30
2018-02-10T08:56:59.882Z,28.87
2018-02-10T08:59:27.651Z,27.40
2018-02-10T09:01:55.256Z,28.97
2018-02-10T09:04:22.874Z,33.47
2018-02-10T09:06:50.470Z,31.87
2018-02-10T09:09:18.068Z,36.50
2018-02-10T09:11:46.492Z,46.20
2018-02-10T09:14:14.097Z,30.33
2018-02-10T09:16:41.725Z,30.00
2018-02-10T09:19:09.325Z,32.50
2018-02-10T09:21:36.910Z,30.00
2018-02-10T09:24:06.123Z,32.47
2018-02-10T09:26:34.492Z,29.83
2018-02-10T09:29:02.127Z,28.77
2018-02-10T09:31:29.798Z,35.40
2018-02-10T09:33:57.496Z,32.50
2018-02-10T09:36:25.873Z,30.43
2018-02-10T09:38:53.492Z,28.50
2018-02-10T09:41:21.116Z,29.03
2018-02-10T09:43:48.732Z,26.47
2018-02-10T09:46:16.361Z,28.17
2018-02-10T09:48:44.873Z,27.80
2018-02-10T09:51:12.589Z,29.93
2018-02-10T09:53:42.285Z,27.33
2018-02-10T09:56:09.885Z,26.80
2018-02-10T09:58:37.507Z,26.03
2018-02-10T10:01:05.109Z,27.27
2018-02-10T10:03:33.501Z,26.03
2018-02-10T10:06:01.097Z,29.30
2018-02-10T10:08:30.835Z,27.70
2018-02-10T10:10:58.456Z,28.83
2018-02-10T10:13:26.833Z,28.93
2018-02-10T10:15:54.564Z,30.57
2018-02-10T10:18:22.175Z,30.87
2018-02-10T10:20:50.686Z,29.73
2018-02-10T10:23:18.306Z,28.93
2018-02-10T10:25:45.918Z,31.77
2018-02-10T10:28:13.658Z,27.60
2018-02-10T10:30:42.059Z,29.80
2018-02-10T10:33:10.468Z,30.27
2018-02-10T10:35:38.162Z,29.87
2018-02-10T10:38:05.762Z,31.73
2018-02-10T10:40:34.159Z,33.07
2018-02-10T10:43:01.804Z,32.37
2018-02-10T10:45:29.430Z,31.27
2018-02-10T10:47:57.025Z,29.53
2018-02-10T10:50:24.687Z,27.93
2018-02-10T10:52:52.308Z,30.23
2018-02-10T10:55:19.964Z,27.83
2018-02-10T10:57:47.720Z,26.63
2018-02-10T11:00:19.054Z,25.33
2018-02-10T11:02:47.464Z,25.17
2018-02-10T11:05:15.092Z,24.20
2018-02-10T11:07:42.716Z,25.47
2018-02-10T11:10:10.345Z,23.13
2018-02-10T11:12:38.713Z,24.53
2018-02-10T11:15:06.306Z,24.27
2018-02-10T11:17:33.923Z,24.30
2018-02-10T11:20:01.556Z,26.80
2018-02-10T11:22:29.334Z,25.27
2018-02-10T11:24:56.932Z,26.10
2018-02-10T11:27:24.550Z,25.50
2018-02-10T11:29:52.193Z,24.60
2018-02-10T11:32:20.563Z,25.60
2018-02-10T11:34:48.197Z,27.97
2018-02-10T11:37:15.797Z,27.07
2018-02-10T11:39:43.504Z,25.40
2018-02-10T11:42:11.148Z,25.63
2018-02-10T11:44:39.535Z,27.77
2018-02-10T11:47:07.166Z,25.60
2018-02-10T11:49:36.269Z,29.30
2018-02-10T11:52:05.405Z,25.70
2018-02-10T11:54:33.193Z,25.90
2018-02-10T11:57:00.823Z,30.13
2018-02-10T11:59:29.236Z,29.57
2018-02-10T12:01:56.833Z,26.30
2018-02-10T12:04:24.475Z,58.40
2018-02-10T12:06:52.081Z,26.57
2018-02-10T12:09:19.711Z,24.57
2018-02-10T12:11:47.313Z,24.70
2018-02-10T12:14:15.854Z,23.80
2018-02-10T12:16:43.500Z,24.20
2018-02-10T12:19:11.864Z,26.23
2018-02-10T12:21:40.293Z,23.80
2018-02-10T12:24:07.882Z,23.47
2018-02-10T12:26:35.605Z,28.40
2018-02-10T12:29:03.215Z,26.30
2018-02-10T12:31:30.846Z,24.50
2018-02-10T12:33:58.505Z,26.17
2018-02-10T12:36:26.123Z,24.73
2018-02-10T12:38:53.811Z,24.63
2018-02-10T12:41:21.422Z,24.03
2018-02-10T12:43:49.406Z,25.40
2018-02-10T12:46:17.024Z,29.33
2018-02-10T12:48:51.002Z,22.17
2018-02-10T12:51:18.608Z,23.50
2018-02-10T12:53:46.992Z,24.93
2018-02-10T12:56:15.468Z,26.80
2018-02-10T12:58:43.839Z,25.20
2018-02-10T13:01:11.475Z,22.80
2018-02-10T13:03:39.110Z,32.70
2018-02-10T13:06:06.852Z,34.03
2018-02-10T13:08:34.478Z,39.70
2018-02-10T13:11:02.089Z,28.40
2018-02-10T13:13:30.632Z,26.17
2018-02-10T13:15:58.241Z,30.33
2018-02-10T13:18:26.619Z,25.37
2018-02-10T13:20:54.255Z,29.60
2018-02-10T13:23:21.876Z,23.33
2018-02-10T13:25:49.515Z,25.40
2018-02-10T13:28:17.925Z,28.27
2018-02-10T13:30:45.510Z,22.47
2018-02-10T13:33:13.124Z,42.10
2018-02-10T13:35:42.667Z,37.13
2018-02-10T13:40:45.653Z,26.77
2018-02-10T13:43:14.197Z,26.50
2018-02-10T13:45:41.825Z,26.00
2018-02-10T13:48:09.444Z,22.90
2018-02-10T13:50:37.083Z,23.97
2018-02-10T13:53:04.695Z,24.30
2018-02-10T13:55:32.329Z,25.40
2018-02-10T13:57:59.947Z,22.73
2018-02-10T14:00:27.844Z,21.20
2018-02-10T14:02:55.921Z,26.70
2018-02-10T14:05:23.530Z,24.57
2018-02-10T14:07:51.227Z,21.60
2018-02-10T14:10:19.607Z,24.70
2018-02-10T14:12:47.989Z,23.80
2018-02-10T14:15:16.543Z,24.63
2018-02-10T14:17:44.156Z,21.23
2018-02-10T14:20:11.903Z,19.67
2018-02-10T14:22:40.456Z,20.40
2018-02-10T14:25:08.081Z,21.20
2018-02-10T14:27:35.749Z,22.17
2018-02-10T14:30:03.341Z,21.23
2018-02-10T14:32:30.934Z,20.67
2018-02-10T14:34:58.626Z,22.57
2018-02-10T14:37:26.258Z,21.50
2018-02-10T14:39:53.959Z,25.37
2018-02-10T14:42:22.352Z,23.30
2018-02-10T14:44:50.016Z,26.00
2018-02-10T14:47:18.386Z,24.20
2018-02-10T14:49:46.900Z,24.43
2018-02-10T14:52:14.541Z,21.83
2018-02-10T14:54:42.948Z,21.53
2018-02-10T14:57:11.330Z,23.10
2018-02-10T14:59:39.061Z,23.60
2018-02-10T15:02:06.690Z,22.90
2018-02-10T15:04:34.309Z,20.43
2018-02-10T15:07:02.695Z,26.50
2018-02-10T15:09:31.067Z,32.23
2018-02-10T15:11:58.705Z,35.20
2018-02-10T15:14:26.332Z,32.70
2018-02-10T15:16:53.979Z,23.00
2018-02-10T15:19:22.336Z,22.70
2018-02-10T15:21:49.975Z,19.27
2018-02-10T15:24:17.579Z,19.50
2018-02-10T15:26:45.169Z,19.80
2018-02-10T15:29:12.831Z,18.07
2018-02-10T15:31:53.257Z,20.20
2018-02-10T15:34:45.746Z,19.43
2018-02-10T15:37:13.449Z,19.87
2018-02-10T15:39:41.095Z,29.37
2018-02-10T15:42:08.859Z,22.23
2018-02-10T15:44:36.608Z,26.30
2018-02-10T15:47:04.479Z,20.00
2018-02-10T15:49:32.112Z,25.60
2018-02-10T15:52:00.206Z,24.73
2018-02-10T15:54:27.974Z,22.97
2018-02-10T15:56:55.637Z,20.77
2018-02-10T15:59:24.075Z,20.13
2018-02-10T16:01:51.731Z,21.97
2018-02-10T16:04:19.394Z,20.70
2018-02-10T16:06:46.992Z,21.93
2018-02-10T16:09:15.556Z,24.27
2018-02-10T16:11:43.162Z,24.03
2018-02-10T16:14:10.822Z,23.20
2018-02-10T16:16:38.426Z,22.10
2018-02-10T16:19:06.030Z,20.93
2018-02-10T16:21:33.668Z,28.03
2018-02-10T16:24:01.330Z,23.23
2018-02-10T16:26:29.009Z,19.80
2018-02-10T16:28:56.696Z,20.33
2018-02-10T16:31:24.340Z,22.70
2018-02-10T16:33:52.070Z,22.17
2018-02-10T16:36:20.460Z,21.97
2018-02-10T16:38:48.834Z,21.93
2018-02-10T16:41:17.203Z,21.73
2018-02-10T16:43:44.805Z,22.20
2018-02-10T16:46:12.424Z,28.23
2018-02-10T16:48:40.034Z,29.10
2018-02-10T16:51:07.691Z,31.00
2018-02-10T16:53:36.103Z,28.47
2018-02-10T16:56:03.869Z,29.77
2018-02-10T16:58:31.529Z,30.03
2018-02-10T17:00:59.150Z,30.83
2018-02-10T17:03:26.777Z,33.60
2018-02-10T17:05:54.663Z,35.20
2018-02-10T17:08:22.275Z,30.80
2018-02-10T17:10:50.651Z,27.27
2018-02-10T17:13:19.443Z,29.23
2018-02-10T17:15:47.113Z,28.43
2018-02-10T17:18:15.486Z,33.93
2018-02-10T17:20:43.117Z,61.20
2018-02-10T17:23:10.717Z,64.37
2018-02-10T17:25:39.119Z,55.50
2018-02-10T17:28:07.531Z,38.13
2018-02-10T17:30:35.286Z,31.13
2018-02-10T17:33:02.888Z,42.83
2018-02-10T17:35:30.495Z,58.23
2018-02-10T17:37:58.899Z,38.53
2018-02-10T17:40:26.534Z,51.77
2018-02-10T17:42:55.002Z,49.57
2018-02-10T17:45:22.631Z,39.97
2018-02-10T17:47:50.373Z,35.40
2018-02-10T17:50:19.501Z,34.17
2018-02-10T17:52:47.140Z,34.70
2018-02-10T17:55:15.574Z,40.10
2018-02-10T17:57:43.283Z,54.30
2018-02-10T18:00:12.187Z,39.00
2018-02-10T18:02:40.603Z,36.63
2018-02-10T18:05:08.274Z,35.37
2018-02-10T18:07:35.909Z,27.63
2018-02-10T18:10:04.274Z,29.37
2018-02-10T18:12:32.044Z,28.00
2018-02-10T18:15:00.590Z,27.70
2018-02-10T18:17:28.420Z,26.63
2018-02-10T18:19:56.955Z,28.50
2018-02-10T18:22:24.575Z,25.87
2018-02-10T18:24:52.286Z,28.30
2018-02-10T18:27:19.926Z,26.27
2018-02-10T18:29:47.543Z,28.83
2018-02-10T18:32:15.935Z,28.10
2018-02-10T18:34:44.414Z,27.83
2018-02-10T18:37:13.712Z,25.50
2018-02-10T18:39:41.454Z,29.33
2018-02-10T18:42:09.333Z,26.70
2018-02-10T18:44:36.984Z,26.60
2018-02-10T18:47:04.763Z,24.73
2018-02-10T18:49:32.371Z,26.03
2018-02-10T18:52:00.827Z,28.23
2018-02-10T18:54:28.670Z,35.80
2018-02-10T18:56:56.426Z,29.03
2018-02-10T18:59:24.445Z,30.00
2018-02-10T19:01:53.509Z,25.10
2018-02-10T19:04:21.184Z,27.80
2018-02-10T19:06:48.875Z,31.07
2018-02-10T19:09:16.538Z,28.30
2018-02-10T19:11:44.220Z,30.70
2018-02-10T19:14:12.641Z,35.83
2018-02-10T19:16:41.014Z,29.63
2018-02-10T19:19:09.477Z,25.70
2018-02-10T19:21:37.914Z,29.87
2018-02-10T19:24:05.640Z,27.43
2018-02-10T19:26:34.090Z,31.17
2018-02-10T19:29:01.732Z,26.57
2018-02-10T19:31:29.449Z,26.40
2018-02-10T19:33:57.264Z,29.67
2018-02-10T19:36:24.913Z,26.97
2018-02-10T19:38:53.354Z,25.80
2018-02-10T19:41:21.060Z,24.50
2018-02-10T19:43:48.741Z,25.20
2018-02-10T19:46:16.399Z,24.73
2018-02-10T19:48:44.046Z,26.00
2018-02-10T19:51:11.724Z,22.23
2018-02-10T19:53:40.207Z,24.40
2018-02-10T19:56:08.625Z,22.57
2018-02-10T19:58:36.318Z,23.73
2018-02-10T20:01:03.956Z,23.53
2018-02-10T20:03:32.178Z,21.87
2018-02-10T20:05:59.900Z,20.97
2018-02-10T20:08:27.633Z,22.67
2018-02-10T20:10:56.109Z,22.83
2018-02-10T20:13:28.836Z,24.43
2018-02-10T20:15:56.690Z,26.80
2018-02-10T20:18:24.392Z,26.80
2018-02-10T20:20:52.038Z,25.90
2018-02-10T20:23:20.425Z,25.20
2018-02-10T20:25:48.165Z,26.10
2018-02-10T20:28:15.988Z,30.23
2018-02-10T20:30:43.657Z,29.17
2018-02-10T20:33:11.364Z,27.80
2018-02-10T20:35:39.870Z,27.93
2018-02-10T20:38:07.598Z,29.40
2018-02-10T20:40:35.318Z,26.17
2018-02-10T20:43:03.203Z,27.00
2018-02-10T20:45:30.947Z,25.67
2018-02-10T20:47:58.654Z,26.87
2018-02-10T20:50:26.497Z,25.23
2018-02-10T20:52:54.257Z,28.50
2018-02-10T20:55:21.979Z,28.87
2018-02-10T20:57:49.759Z,28.27
2018-02-10T21:00:18.269Z,32.07
2018-02-10T21:02:46.690Z,28.07
2018-02-10T21:05:15.260Z,26.27
2018-02-10T21:07:43.040Z,27.60
2018-02-10T21:10:11.502Z,30.70
2018-02-10T21:12:39.214Z,29.93
2018-02-10T21:15:07.730Z,26.80
2018-02-10T21:17:35.448Z,27.10
2018-02-10T21:20:03.153Z,27.93
2018-02-10T21:22:30.826Z,24.80
2018-02-10T21:24:58.532Z,27.27
2018-02-10T21:27:26.210Z,27.17
2018-02-10T21:29:53.931Z,27.50
2018-02-10T21:32:21.637Z,26.43
2018-02-10T21:34:50.157Z,27.97
2018-02-10T21:37:17.822Z,27.90
2018-02-10T21:39:45.486Z,33.70
2018-02-10T21:42:13.348Z,25.30
2018-02-10T21:44:41.016Z,28.40
2018-02-10T21:47:08.674Z,26.60
2018-02-10T21:49:36.285Z,25.77
2018-02-10T21:52:04.004Z,26.80
2018-02-10T21:54:31.732Z,25.97
2018-02-10T21:57:00.141Z,26.57
2018-02-10T21:59:28.631Z,27.40
2018-02-10T22:01:56.990Z,28.03
2018-02-10T22:04:25.509Z,28.17
2018-02-10T22:06:53.383Z,25.93
2018-02-10T22:09:21.087Z,25.37
2018-02-10T22:11:48.699Z,27.47
2018-02-10T22:14:17.070Z,27.03
2018-02-10T22:16:45.585Z,26.40
2018-02-10T22:19:13.344Z,27.10
2018-02-10T22:21:41.735Z,28.83
2018-02-10T22:24:09.419Z,27.73
2018-02-10T22:26:37.069Z,27.30
2018-02-10T22:29:04.773Z,25.73
2018-02-10T22:31:32.396Z,28.50
2018-02-10T22:34:00.120Z,27.27
2018-02-10T22:36:27.723Z,27.77
2018-02-10T22:38:56.109Z,24.00
2018-02-10T22:41:23.738Z,27.00
2018-02-10T22:43:51.382Z,26.13
2018-02-10T22:46:19.020Z,26.10
2018-02-10T22:48:46.638Z,23.60
2018-02-10T22:51:14.602Z,23.37
2018-02-10T22:53:42.208Z,22.30
2018-02-10T22:56:10.579Z,24.23
2018-02-10T22:58:38.994Z,26.67
2018-02-10T23:01:12.284Z,25.90
2018-02-10T23:03:39.908Z,24.63
2018-02-10T23:06:09.045Z,24.23
2018-02-10T23:08:36.716Z,25.13
2018-02-10T23:11:04.336Z,23.20
2018-02-10T23:13:31.956Z,23.27
2018-02-10T23:15:59.583Z,24.40
2018-02-10T23:18:27.165Z,23.93
2018-02-10T23:20:54.811Z,22.13
2018-02-10T23:23:23.920Z,21.03
2018-02-10T23:25:52.351Z,23.17
2018-02-10T23:28:19.965Z,23.17
2018-02-10T23:30:48.345Z,22.90
2018-02-10T23:33:15.975Z,22.47
2018-02-10T23:35:43.569Z,24.53
2018-02-10T23:38:11.221Z,23.37
2018-02-10T23:40:38.816Z,23.23
2018-02-10T23:43:07.211Z,23.03
2018-02-10T23:45:35.595Z,23.13
2018-02-10T23:48:04.022Z,22.53
2018-02-10T23:50:31.625Z,21.70
2018-02-10T23:53:00.015Z,21.93
2018-02-10T23:55:28.409Z,22.67
2018-02-10T23:57:56.778Z,21.20
